Aeroporto :
LOGIN :

Iscrizione | Disclaimer

   EN    FR    IT 

 










Sommario :    VFR   VFR Marginale   IFR   IFR Intensivo   IFR Molto Intensivo
Visibilità : 
Base nubi : 
>= 8 km
>= 3000ft
5 / 8 km
1000 / 3000 ft
1500m / 5 km
500 / 1000 ft
800 / 1500m
200 / 500 ft
< 800m
< 200 ft
Simboli :   Temporali  Nebbia  Neve Forte  Precipitazioni Forti  Vento > 20 kt
SIGMETs :   Varie  Temporali  Ghiacco  Turbolenza  Onda orograficha  Ceneri Vulcaniche






- Altitudine del aeroporto : 157 ft
- Codice IATA : LIL


LFQQ - Lille Lesquin

ULTIMO METAR :
  • 300900Z AUTO 21007KT CAVOK 13/08 Q1011 NOSIG

METARs OBSOLETI :
  • 300830Z AUTO 19005KT 170V240 CAVOK 13/09 Q1010 NOSIG
  • 300800Z AUTO 17004KT CAVOK 11/09 Q1010 NOSIG
  • 300730Z AUTO VRB01KT CAVOK 09/08 Q1010 BECMG 19012KT
  • 300700Z AUTO 00000KT CAVOK 08/08 Q1010 NOSIG
  • 300630Z AUTO VRB01KT 9999 4700 NSC 06/06 Q1010 NOSIG

TAF TAF LFQQ
Valido dal 30 a 06 ore il 01 a 12 ore UTC


300500Z 3006/0112 VRB02KT 9999 SCT030
BECMG 3009/3012 19012KT
BECMG 3018/3020 19015G25KT
BECMG 3021/3023 RA BKN013 OVC030
TEMPO 0100/0103 19025G35KT 3000 BKN007 OVC013
BECMG 0103/0105 25012KT NSW SCT030
TEMPO 0110/0112 3000 SHRA BKN020TCU
ATIS : +33 3 20 16 19 54



MetMap, La meteo Aeronautica in un colpo d'occhio ! - Copyright ORBIFLY Dicembre 2007 - Disclaimer

ORBIFLY MET'MAP TEAM :

Programmazione e sviluppo : Alexandra Zaïnal
Concezione : Baudouin d'Aumeries
Supporto tecnico e logistico : Manuel Goepfert
Aiuto : Marc-Olivier Méhu
Aiuto per la traduzione : Arnaldo La Scala




FONTI E CREDITI :

   NOAA